CCM26I LFKB-LIRF
Flight info
| Callsign | CCM26I |
|---|---|
| Flight time | 0h 28m |
| Altitude | 20000 |
| Route | MOULE DCT BEGUD DCT KARDU/N0376F190 DCT ELKAP DCT BIBEK DCT OXERU |
| Aircraft | A20N/M-SDE2E3FGHIRWXY/LB1 |
Departure
| Time | 2026-05-08 18:59 |
|---|---|
| Airport | Bastia-Poretta International airport (LFKB) |
Arrival
| Time | 2026-05-08 19:28 |
|---|---|
| Airport | Rome–Fiumicino Leonardo da Vinci International Airport (LIRF) |
| Time | Latitude | Longitude | Altitude | Speed | Heading |
|---|---|---|---|---|---|
| 2026-05-08 18:33 | 42.54882 | 9.48148 | 37 ft | 0 kts | 281° |
| 2026-05-08 18:47 | 42.54881 | 9.48153 | 37 ft | 2 kts | 281° |
| 2026-05-08 18:47 | 42.54878 | 9.48173 | 36 ft | 2 kts | 281° |
| 2026-05-08 18:48 | 42.54875 | 9.48193 | 36 ft | 2 kts | 281° |
| 2026-05-08 18:48 | 42.54872 | 9.48213 | 36 ft | 2 kts | 281° |
| 2026-05-08 18:48 | 42.54870 | 9.48233 | 36 ft | 2 kts | 283° |
| 2026-05-08 18:48 | 42.54863 | 9.48251 | 36 ft | 2 kts | 305° |
| 2026-05-08 18:49 | 42.54853 | 9.48266 | 36 ft | 2 kts | 323° |
| 2026-05-08 18:49 | 42.54841 | 9.48275 | 36 ft | 1 kts | 339° |
| 2026-05-08 18:49 | 42.54835 | 9.48278 | 36 ft | 1 kts | 344° |
| 2026-05-08 18:49 | 42.54833 | 9.48278 | 36 ft | 0 kts | 343° |
| 2026-05-08 18:52 | 42.54835 | 9.48278 | 36 ft | 0 kts | 343° |
| 2026-05-08 18:52 | 42.54845 | 9.48274 | 36 ft | 1 kts | 343° |
| 2026-05-08 18:53 | 42.54858 | 9.48268 | 36 ft | 3 kts | 342° |
| 2026-05-08 18:53 | 42.54888 | 9.48255 | 36 ft | 5 kts | 342° |
| 2026-05-08 18:53 | 42.54930 | 9.48241 | 36 ft | 7 kts | 352° |
| 2026-05-08 18:53 | 42.54989 | 9.48234 | 36 ft | 10 kts | 348° |
| 2026-05-08 18:54 | 42.55071 | 9.48202 | 35 ft | 13 kts | 342° |
| 2026-05-08 18:54 | 42.55174 | 9.48158 | 35 ft | 16 kts | 342° |
| 2026-05-08 18:54 | 42.55296 | 9.48107 | 34 ft | 19 kts | 342° |
| 2026-05-08 18:54 | 42.55436 | 9.48048 | 33 ft | 22 kts | 342° |
| 2026-05-08 18:55 | 42.55775 | 9.47901 | 29 ft | 28 kts | 343° |
| 2026-05-08 18:55 | 42.55949 | 9.47935 | 27 ft | 27 kts | 64° |
| 2026-05-08 18:55 | 42.55895 | 9.48104 | 27 ft | 22 kts | 161° |
| 2026-05-08 18:56 | 42.55749 | 9.48169 | 29 ft | 21 kts | 161° |
| 2026-05-08 18:56 | 42.55607 | 9.48229 | 31 ft | 21 kts | 162° |
| 2026-05-08 18:56 | 42.55454 | 9.48295 | 32 ft | 23 kts | 162° |
| 2026-05-08 18:56 | 42.55291 | 9.48363 | 33 ft | 25 kts | 162° |
| 2026-05-08 18:57 | 42.55118 | 9.48438 | 35 ft | 27 kts | 162° |
| 2026-05-08 18:57 | 42.54933 | 9.48515 | 35 ft | 28 kts | 162° |
| 2026-05-08 18:57 | 42.54740 | 9.48597 | 36 ft | 29 kts | 162° |
| 2026-05-08 18:57 | 42.54542 | 9.48679 | 36 ft | 29 kts | 163° |
| 2026-05-08 18:58 | 42.54353 | 9.48756 | 36 ft | 27 kts | 162° |
| 2026-05-08 18:58 | 42.54205 | 9.48793 | 36 ft | 7 kts | 123° |
| 2026-05-08 18:58 | 42.54238 | 9.48810 | 36 ft | 7 kts | 333° |
| 2026-05-08 18:58 | 42.54293 | 9.48784 | 36 ft | 8 kts | 341° |
| 2026-05-08 18:59 | 42.54379 | 9.48746 | 36 ft | 33 kts | 342° |
| 2026-05-08 18:59 | 42.54887 | 9.48534 | 36 ft | 115 kts | 342° |
| 2026-05-08 18:59 | 42.55850 | 9.48119 | 130 ft | 169 kts | 342° |
| 2026-05-08 18:59 | 42.57047 | 9.47765 | 759 ft | 181 kts | 358° |
| 2026-05-08 19:00 | 42.58287 | 9.47970 | 1617 ft | 186 kts | 17° |
| 2026-05-08 19:00 | 42.59412 | 9.48739 | 2476 ft | 190 kts | 40° |
| 2026-05-08 19:00 | 42.60035 | 9.50347 | 2996 ft | 207 kts | 84° |
| 2026-05-08 19:00 | 42.59831 | 9.52345 | 3447 ft | 229 kts | 99° |
| 2026-05-08 19:01 | 42.59647 | 9.54576 | 3992 ft | 248 kts | 89° |
| 2026-05-08 19:01 | 42.59710 | 9.56976 | 4655 ft | 262 kts | 83° |
| 2026-05-08 19:01 | 42.59930 | 9.59421 | 5521 ft | 267 kts | 80° |
| 2026-05-08 19:01 | 42.60232 | 9.61891 | 6413 ft | 271 kts | 79° |
| 2026-05-08 19:02 | 42.60583 | 9.64427 | 7315 ft | 276 kts | 78° |
| 2026-05-08 19:02 | 42.60954 | 9.66978 | 8183 ft | 280 kts | 78° |
| 2026-05-08 19:02 | 42.61333 | 9.69545 | 9016 ft | 285 kts | 78° |
| 2026-05-08 19:02 | 42.61733 | 9.72201 | 9855 ft | 289 kts | 76° |
| 2026-05-08 19:03 | 42.62529 | 9.74689 | 10560 ft | 296 kts | 52° |
| 2026-05-08 19:03 | 42.64071 | 9.76560 | 11005 ft | 310 kts | 29° |
| 2026-05-08 19:03 | 42.66054 | 9.77965 | 11428 ft | 327 kts | 26° |
| 2026-05-08 19:03 | 42.68123 | 9.79418 | 11797 ft | 346 kts | 27° |
| 2026-05-08 19:04 | 42.70289 | 9.80971 | 12121 ft | 363 kts | 27° |
| 2026-05-08 19:04 | 42.72564 | 9.82629 | 12466 ft | 379 kts | 27° |
| 2026-05-08 19:04 | 42.74920 | 9.84361 | 13099 ft | 385 kts | 28° |
| 2026-05-08 19:04 | 42.77068 | 9.86524 | 13763 ft | 392 kts | 47° |
| 2026-05-08 19:05 | 42.78507 | 9.89660 | 14439 ft | 397 kts | 68° |
| 2026-05-08 19:05 | 42.79069 | 9.93313 | 15073 ft | 403 kts | 88° |
| 2026-05-08 19:05 | 42.78812 | 9.97145 | 15707 ft | 408 kts | 97° |
| 2026-05-08 19:05 | 42.78408 | 10.00955 | 16293 ft | 413 kts | 98° |
| 2026-05-08 19:06 | 42.78002 | 10.04828 | 16879 ft | 417 kts | 97° |
| 2026-05-08 19:06 | 42.77603 | 10.08754 | 17437 ft | 422 kts | 97° |
| 2026-05-08 19:06 | 42.77214 | 10.12663 | 17990 ft | 426 kts | 97° |
| 2026-05-08 19:06 | 42.76819 | 10.16700 | 18534 ft | 430 kts | 97° |
| 2026-05-08 19:07 | 42.76427 | 10.20711 | 19016 ft | 436 kts | 97° |
| 2026-05-08 19:07 | 42.76029 | 10.24801 | 19495 ft | 441 kts | 97° |
| 2026-05-08 19:07 | 42.75622 | 10.28973 | 19896 ft | 446 kts | 97° |
| 2026-05-08 19:07 | 42.75211 | 10.33177 | 20016 ft | 448 kts | 97° |
| 2026-05-08 19:08 | 42.74804 | 10.37317 | 20020 ft | 448 kts | 97° |
| 2026-05-08 19:08 | 42.74390 | 10.41512 | 20022 ft | 448 kts | 97° |
| 2026-05-08 19:08 | 42.73974 | 10.45722 | 20023 ft | 448 kts | 97° |
| 2026-05-08 19:08 | 42.73561 | 10.49880 | 20022 ft | 447 kts | 97° |
| 2026-05-08 19:09 | 42.73141 | 10.54080 | 20018 ft | 448 kts | 97° |
| 2026-05-08 19:09 | 42.72723 | 10.58242 | 20017 ft | 448 kts | 98° |
| 2026-05-08 19:09 | 42.72095 | 10.62377 | 20015 ft | 447 kts | 106° |
| 2026-05-08 19:09 | 42.71055 | 10.66311 | 20012 ft | 447 kts | 115° |
| 2026-05-08 19:10 | 42.69591 | 10.70081 | 20015 ft | 446 kts | 122° |
| 2026-05-08 19:10 | 42.67978 | 10.73634 | 20015 ft | 446 kts | 123° |
| 2026-05-08 19:10 | 42.66323 | 10.77182 | 20006 ft | 446 kts | 124° |
| 2026-05-08 19:10 | 42.64656 | 10.80755 | 20004 ft | 446 kts | 123° |
| 2026-05-08 19:11 | 42.63027 | 10.84261 | 20002 ft | 446 kts | 123° |
| 2026-05-08 19:11 | 42.61365 | 10.87855 | 20023 ft | 446 kts | 123° |
| 2026-05-08 19:11 | 42.59728 | 10.91399 | 20021 ft | 446 kts | 123° |
| 2026-05-08 19:11 | 42.58098 | 10.94932 | 19656 ft | 447 kts | 123° |
| 2026-05-08 19:12 | 42.56455 | 10.98489 | 19036 ft | 444 kts | 123° |
| 2026-05-08 19:12 | 42.54829 | 11.02007 | 18426 ft | 439 kts | 123° |
| 2026-05-08 19:12 | 42.53209 | 11.05513 | 17831 ft | 435 kts | 123° |
| 2026-05-08 19:12 | 42.51633 | 11.08918 | 17255 ft | 430 kts | 122° |
| 2026-05-08 19:13 | 42.50047 | 11.12343 | 16678 ft | 425 kts | 122° |
| 2026-05-08 19:13 | 42.48497 | 11.15687 | 16097 ft | 421 kts | 122° |
| 2026-05-08 19:13 | 42.46957 | 11.19003 | 15532 ft | 416 kts | 122° |
| 2026-05-08 19:13 | 42.45418 | 11.22312 | 14954 ft | 412 kts | 122° |
| 2026-05-08 19:14 | 42.43908 | 11.25559 | 14400 ft | 408 kts | 122° |
| 2026-05-08 19:14 | 42.42445 | 11.28798 | 13862 ft | 403 kts | 121° |
| 2026-05-08 19:14 | 42.41018 | 11.32000 | 13320 ft | 399 kts | 121° |
| 2026-05-08 19:14 | 42.39599 | 11.35189 | 12769 ft | 395 kts | 121° |
| 2026-05-08 19:15 | 42.38189 | 11.38351 | 12205 ft | 392 kts | 121° |
| 2026-05-08 19:15 | 42.36776 | 11.41516 | 11644 ft | 388 kts | 121° |
| 2026-05-08 19:15 | 42.35395 | 11.44597 | 11210 ft | 380 kts | 121° |
| 2026-05-08 19:15 | 42.34045 | 11.47607 | 10805 ft | 372 kts | 121° |
| 2026-05-08 19:16 | 42.32726 | 11.50545 | 10562 ft | 360 kts | 121° |
| 2026-05-08 19:16 | 42.31468 | 11.53342 | 10414 ft | 346 kts | 121° |
| 2026-05-08 19:16 | 42.30238 | 11.56076 | 10284 ft | 332 kts | 121° |
| 2026-05-08 19:16 | 42.29061 | 11.58687 | 10178 ft | 318 kts | 121° |
| 2026-05-08 19:17 | 42.27951 | 11.61151 | 10090 ft | 304 kts | 121° |
| 2026-05-08 19:17 | 42.26871 | 11.63545 | 10007 ft | 292 kts | 121° |
| 2026-05-08 19:17 | 42.25811 | 11.65893 | 9645 ft | 291 kts | 121° |
| 2026-05-08 19:17 | 42.24765 | 11.68209 | 9288 ft | 290 kts | 121° |
| 2026-05-08 19:18 | 42.23730 | 11.70495 | 8951 ft | 288 kts | 121° |
| 2026-05-08 19:18 | 42.22693 | 11.72786 | 8618 ft | 286 kts | 121° |
| 2026-05-08 19:18 | 42.21663 | 11.75060 | 8281 ft | 284 kts | 121° |
| 2026-05-08 19:18 | 42.20642 | 11.77308 | 7955 ft | 282 kts | 121° |
| 2026-05-08 19:19 | 42.19613 | 11.79575 | 7631 ft | 280 kts | 121° |
| 2026-05-08 19:19 | 42.18610 | 11.81784 | 7308 ft | 278 kts | 121° |
| 2026-05-08 19:19 | 42.17606 | 11.83997 | 6981 ft | 276 kts | 121° |
| 2026-05-08 19:19 | 42.16608 | 11.86191 | 6661 ft | 274 kts | 121° |
| 2026-05-08 19:20 | 42.15624 | 11.88354 | 6346 ft | 272 kts | 121° |
| 2026-05-08 19:20 | 42.14957 | 11.89816 | 6135 ft | 271 kts | 121° |
| 2026-05-08 19:20 | 42.13662 | 11.92660 | 5724 ft | 269 kts | 121° |
| 2026-05-08 19:20 | 42.12683 | 11.94805 | 5411 ft | 267 kts | 121° |
| 2026-05-08 19:21 | 42.11718 | 11.96921 | 5096 ft | 265 kts | 121° |
| 2026-05-08 19:21 | 42.10751 | 11.99037 | 4787 ft | 263 kts | 121° |
| 2026-05-08 19:21 | 42.09805 | 12.01107 | 4484 ft | 262 kts | 120° |
| 2026-05-08 19:21 | 42.08846 | 12.03205 | 4178 ft | 260 kts | 121° |
| 2026-05-08 19:22 | 42.07907 | 12.05258 | 3876 ft | 258 kts | 121° |
| 2026-05-08 19:22 | 42.06977 | 12.07288 | 3586 ft | 256 kts | 121° |
| 2026-05-08 19:22 | 42.06040 | 12.09332 | 3278 ft | 254 kts | 121° |
| 2026-05-08 19:22 | 42.05125 | 12.11326 | 2979 ft | 252 kts | 120° |
| 2026-05-08 19:23 | 42.04208 | 12.13320 | 2685 ft | 250 kts | 120° |
| 2026-05-08 19:23 | 42.03300 | 12.15295 | 2492 ft | 243 kts | 120° |
| 2026-05-08 19:23 | 42.02433 | 12.17180 | 2477 ft | 228 kts | 120° |
| 2026-05-08 19:23 | 42.01470 | 12.18764 | 2460 ft | 216 kts | 143° |
| 2026-05-08 19:24 | 42.00177 | 12.19653 | 2469 ft | 203 kts | 157° |
| 2026-05-08 19:24 | 41.98834 | 12.20246 | 2488 ft | 202 kts | 161° |
| 2026-05-08 19:24 | 41.97537 | 12.20755 | 2585 ft | 187 kts | 161° |
| 2026-05-08 19:24 | 41.96320 | 12.21239 | 2403 ft | 178 kts | 160° |
| 2026-05-08 19:25 | 41.95168 | 12.21712 | 2167 ft | 172 kts | 160° |
| 2026-05-08 19:25 | 41.94054 | 12.22177 | 1936 ft | 162 kts | 159° |
| 2026-05-08 19:25 | 41.93025 | 12.22610 | 1704 ft | 150 kts | 159° |
| 2026-05-08 19:25 | 41.92075 | 12.23009 | 1491 ft | 139 kts | 159° |
| 2026-05-08 19:26 | 41.91141 | 12.23404 | 1326 ft | 139 kts | 159° |
| 2026-05-08 19:26 | 41.90222 | 12.23791 | 1160 ft | 139 kts | 160° |
| 2026-05-08 19:26 | 41.89300 | 12.24178 | 985 ft | 139 kts | 160° |
| 2026-05-08 19:26 | 41.88384 | 12.24562 | 809 ft | 139 kts | 160° |
| 2026-05-08 19:27 | 41.87454 | 12.24952 | 620 ft | 138 kts | 161° |
| 2026-05-08 19:27 | 41.86540 | 12.25333 | 435 ft | 138 kts | 161° |
| 2026-05-08 19:27 | 41.85619 | 12.25709 | 247 ft | 138 kts | 160° |
| 2026-05-08 19:27 | 41.84703 | 12.26097 | 92 ft | 137 kts | 160° |
| 2026-05-08 19:28 | 41.83801 | 12.26480 | 14 ft | 126 kts | 161° |
| 2026-05-08 19:28 | 41.83247 | 12.26716 | 11 ft | 52 kts | 164° |
| 2026-05-08 19:28 | 41.82949 | 12.26835 | 10 ft | 33 kts | 164° |
| 2026-05-08 19:28 | 41.82767 | 12.26871 | 10 ft | 23 kts | 179° |
| 2026-05-08 19:29 | 41.82621 | 12.26845 | 10 ft | 18 kts | 192° |
| 2026-05-08 19:29 | 41.82521 | 12.26815 | 10 ft | 11 kts | 193° |
| 2026-05-08 19:29 | 41.82447 | 12.26793 | 10 ft | 10 kts | 191° |
| 2026-05-08 19:29 | 41.82376 | 12.26777 | 10 ft | 10 kts | 183° |
| 2026-05-08 19:30 | 41.82304 | 12.26789 | 10 ft | 10 kts | 166° |
| 2026-05-08 19:30 | 41.82234 | 12.26815 | 10 ft | 10 kts | 162° |
| 2026-05-08 19:30 | 41.82159 | 12.26847 | 10 ft | 12 kts | 162° |
| 2026-05-08 19:30 | 41.82069 | 12.26885 | 10 ft | 14 kts | 162° |
| 2026-05-08 19:31 | 41.81963 | 12.26931 | 11 ft | 17 kts | 163° |
| 2026-05-08 19:31 | 41.81842 | 12.26980 | 11 ft | 19 kts | 162° |
| 2026-05-08 19:31 | 41.81700 | 12.27038 | 11 ft | 22 kts | 163° |
| 2026-05-08 19:31 | 41.81541 | 12.27105 | 12 ft | 24 kts | 162° |
| 2026-05-08 19:32 | 41.81371 | 12.27179 | 12 ft | 26 kts | 162° |
| 2026-05-08 19:32 | 41.81191 | 12.27253 | 12 ft | 27 kts | 162° |
| 2026-05-08 19:32 | 41.81002 | 12.27333 | 13 ft | 29 kts | 163° |
| 2026-05-08 19:32 | 41.80801 | 12.27327 | 13 ft | 28 kts | 188° |
| 2026-05-08 19:33 | 41.80648 | 12.27202 | 13 ft | 26 kts | 246° |
| 2026-05-08 19:33 | 41.80584 | 12.26971 | 13 ft | 26 kts | 249° |
| 2026-05-08 19:33 | 41.80520 | 12.26740 | 14 ft | 26 kts | 249° |
| 2026-05-08 19:33 | 41.80456 | 12.26507 | 15 ft | 26 kts | 250° |
| 2026-05-08 19:34 | 41.80393 | 12.26280 | 16 ft | 26 kts | 250° |
| 2026-05-08 19:34 | 41.80329 | 12.26047 | 16 ft | 26 kts | 249° |
| 2026-05-08 19:34 | 41.80265 | 12.25814 | 16 ft | 26 kts | 250° |
| 2026-05-08 19:34 | 41.80201 | 12.25580 | 16 ft | 26 kts | 249° |
| 2026-05-08 19:35 | 41.80140 | 12.25352 | 16 ft | 24 kts | 250° |
| 2026-05-08 19:35 | 41.80049 | 12.25179 | 16 ft | 22 kts | 208° |
| 2026-05-08 19:35 | 41.79915 | 12.25094 | 16 ft | 20 kts | 205° |
| 2026-05-08 19:35 | 41.79791 | 12.25016 | 16 ft | 16 kts | 210° |
| 2026-05-08 19:36 | 41.79778 | 12.24919 | 16 ft | 7 kts | 296° |
| 2026-05-08 19:36 | 41.79776 | 12.24864 | 16 ft | 6 kts | 251° |
| 2026-05-08 19:36 | 41.79768 | 12.24835 | 16 ft | 1 kts | 249° |
| 2026-05-08 19:36 | 41.79767 | 12.24833 | 16 ft | 0 kts | 249° |